createdAt,value
2018-02-01T00:01:02.999Z,86.80
2018-02-01T00:03:30.499Z,86.20
2018-02-01T00:05:58.037Z,86.30
2018-02-01T00:08:25.569Z,86.40
2018-02-01T00:10:53.116Z,86.40
2018-02-01T00:13:20.652Z,86.20
2018-02-01T00:15:48.183Z,86.40
2018-02-01T00:18:15.672Z,86.70
2018-02-01T00:20:43.960Z,87.10
2018-02-01T00:23:11.509Z,87.10
2018-02-01T00:25:39.780Z,86.80
2018-02-01T00:28:08.048Z,87.70
2018-02-01T00:30:36.331Z,86.70
2018-02-01T00:33:04.620Z,86.90
2018-02-01T00:35:32.137Z,86.80
2018-02-01T00:37:59.640Z,87.50
2018-02-01T00:40:27.136Z,87.80
2018-02-01T00:42:54.660Z,87.30
2018-02-01T00:45:22.164Z,87.20
2018-02-01T00:47:49.801Z,87.00
2018-02-01T00:50:17.324Z,86.90
2018-02-01T00:52:44.821Z,87.00
2018-02-01T00:55:12.344Z,87.20
2018-02-01T00:57:39.840Z,87.20
2018-02-01T01:00:07.370Z,86.80
2018-02-01T01:02:34.868Z,87.20
2018-02-01T01:05:02.382Z,87.50
2018-02-01T01:07:29.879Z,87.10
2018-02-01T01:09:57.388Z,86.00
2018-02-01T01:12:24.895Z,85.70
2018-02-01T01:14:52.409Z,85.40
2018-02-01T01:17:19.923Z,85.20
2018-02-01T01:19:47.411Z,83.90
2018-02-01T01:22:14.939Z,81.90
2018-02-01T01:24:42.440Z,82.50
2018-02-01T01:27:09.967Z,82.10
2018-02-01T01:29:38.240Z,81.60
2018-02-01T01:32:06.554Z,81.60
2018-02-01T01:34:34.084Z,81.50
2018-02-01T01:37:02.342Z,81.20
2018-02-01T01:39:30.019Z,81.20
2018-02-01T01:41:58.288Z,81.20
2018-02-01T01:44:26.574Z,81.40
2018-02-01T01:46:54.860Z,81.20
2018-02-01T01:49:22.373Z,81.20
2018-02-01T01:51:49.907Z,81.10
2018-02-01T01:54:17.758Z,81.20
2018-02-01T01:56:45.267Z,81.50
2018-02-01T01:59:12.756Z,81.40
2018-02-01T02:01:40.296Z,81.30
2018-02-01T02:04:08.572Z,81.60
2018-02-01T02:06:36.844Z,81.40
2018-02-01T02:09:05.141Z,81.50
2018-02-01T02:11:32.651Z,81.40
2018-02-01T02:14:00.179Z,81.50
2018-02-01T02:16:27.674Z,81.50
2018-02-01T02:18:55.191Z,81.40
2018-02-01T02:21:22.693Z,81.30
2018-02-01T02:23:50.975Z,80.70
2018-02-01T02:26:18.573Z,80.60
2018-02-01T02:28:46.090Z,80.80
2018-02-01T02:31:13.656Z,79.90
2018-02-01T02:33:41.913Z,80.00
2018-02-01T02:36:09.439Z,80.00
2018-02-01T02:38:36.942Z,80.00
2018-02-01T02:41:05.225Z,81.10
2018-02-01T02:43:33.504Z,81.50
2018-02-01T02:46:01.804Z,81.20
2018-02-01T02:48:29.368Z,81.20
2018-02-01T02:50:56.859Z,81.30
2018-02-01T02:53:24.384Z,81.20
2018-02-01T02:55:51.881Z,81.30
2018-02-01T02:58:19.388Z,81.70
2018-02-01T03:00:46.897Z,81.50
2018-02-01T03:03:14.421Z,81.40
2018-02-01T03:05:41.951Z,81.50
2018-02-01T03:08:09.436Z,81.50
2018-02-01T03:10:36.959Z,81.70
2018-02-01T03:13:05.209Z,81.20
2018-02-01T03:15:32.697Z,81.20
2018-02-01T03:18:00.972Z,80.80
2018-02-01T03:20:28.492Z,80.80
2018-02-01T03:22:56.015Z,81.30
2018-02-01T03:25:23.505Z,81.30
2018-02-01T03:27:51.063Z,81.10
2018-02-01T03:30:18.549Z,81.20
2018-02-01T03:32:46.802Z,80.80
2018-02-01T03:35:14.315Z,80.70
2018-02-01T03:37:41.808Z,80.40
2018-02-01T03:40:09.339Z,80.30
2018-02-01T03:42:36.827Z,79.70
2018-02-01T03:45:05.132Z,79.00
2018-02-01T03:47:33.384Z,79.20
2018-02-01T03:50:00.924Z,79.20
2018-02-01T03:52:28.417Z,79.40
2018-02-01T03:54:56.671Z,79.40
2018-02-01T03:57:24.199Z,79.40
2018-02-01T03:59:51.696Z,78.90
2018-02-01T04:02:19.999Z,78.60
2018-02-01T04:04:47.500Z,78.50
2018-02-01T04:07:15.019Z,78.90
2018-02-01T04:09:42.530Z,79.10
2018-02-01T04:12:10.023Z,79.30
2018-02-01T04:14:38.322Z,79.50
2018-02-01T04:17:05.816Z,79.60
2018-02-01T04:19:33.340Z,79.60
2018-02-01T04:22:00.835Z,79.80
2018-02-01T04:24:28.391Z,79.80
2018-02-01T04:26:55.884Z,80.30
2018-02-01T04:29:23.391Z,80.20
2018-02-01T04:31:50.891Z,80.00
2018-02-01T04:34:19.174Z,80.30
2018-02-01T04:36:47.458Z,80.30
2018-02-01T04:39:14.975Z,80.30
2018-02-01T04:41:43.254Z,83.10
2018-02-01T04:44:10.752Z,82.20
2018-02-01T04:46:38.290Z,82.60
2018-02-01T04:49:06.574Z,82.40
2018-02-01T04:51:34.840Z,83.20
2018-02-01T04:54:02.372Z,83.10
2018-02-01T04:56:29.895Z,83.30
2018-02-01T04:58:57.400Z,83.80
2018-02-01T05:01:24.901Z,83.80
2018-02-01T05:03:52.420Z,83.60
2018-02-01T05:06:20.682Z,83.40
2018-02-01T05:08:48.223Z,83.40
2018-02-01T05:11:15.754Z,84.50
2018-02-01T05:13:43.314Z,84.50
2018-02-01T05:16:10.845Z,84.60
2018-02-01T05:18:38.359Z,84.20
2018-02-01T05:21:05.844Z,84.50
2018-02-01T05:23:34.120Z,85.10
2018-02-01T05:26:02.406Z,85.10
2018-02-01T05:28:30.681Z,84.70
2018-02-01T05:30:59.001Z,83.30
2018-02-01T05:33:26.506Z,83.30
2018-02-01T05:35:54.792Z,80.20
2018-02-01T05:38:22.285Z,80.10
2018-02-01T05:40:49.845Z,79.90
2018-02-01T05:43:17.347Z,79.70
2018-02-01T05:45:46.348Z,79.20
2018-02-01T05:48:14.662Z,79.00
2018-02-01T05:50:42.173Z,78.90
2018-02-01T05:53:10.468Z,78.90
2018-02-01T05:55:38.032Z,78.90
2018-02-01T05:58:05.517Z,79.00
2018-02-01T06:00:33.056Z,79.10
2018-02-01T06:03:00.568Z,78.70
2018-02-01T06:05:28.860Z,79.10
2018-02-01T06:07:57.135Z,79.30
2018-02-01T06:10:26.288Z,79.40
2018-02-01T06:12:53.819Z,79.40
2018-02-01T06:15:21.324Z,80.00
2018-02-01T06:17:48.854Z,79.10
2018-02-01T06:20:16.355Z,79.00
2018-02-01T06:22:43.863Z,79.50
2018-02-01T06:25:11.375Z,79.60
2018-02-01T06:27:39.628Z,79.20
2018-02-01T06:30:07.150Z,79.20
2018-02-01T06:32:34.635Z,78.50
2018-02-01T06:35:02.181Z,79.00
2018-02-01T06:37:30.518Z,79.70
2018-02-01T06:39:58.020Z,79.60
2018-02-01T06:42:25.562Z,79.70
2018-02-01T06:44:53.084Z,80.00
2018-02-01T06:47:21.380Z,81.00
2018-02-01T06:49:48.876Z,81.00
2018-02-01T06:52:16.403Z,80.00
2018-02-01T06:54:43.893Z,80.20
2018-02-01T06:57:11.410Z,80.70
2018-02-01T06:59:38.913Z,79.70
2018-02-01T07:02:06.509Z,79.80
2018-02-01T07:04:34.004Z,79.90
2018-02-01T07:07:01.494Z,81.60
2018-02-01T07:09:29.016Z,81.50
2018-02-01T07:11:56.516Z,81.90
2018-02-01T07:14:24.801Z,80.40
2018-02-01T07:16:53.067Z,80.30
2018-02-01T07:19:21.350Z,82.10
2018-02-01T07:21:49.609Z,81.90
2018-02-01T07:24:17.908Z,82.70
2018-02-01T07:26:45.432Z,82.30
2018-02-01T07:29:12.921Z,82.60
2018-02-01T07:31:41.334Z,83.10
2018-02-01T07:34:08.848Z,83.10
2018-02-01T07:36:37.175Z,82.70
2018-02-01T07:39:04.664Z,82.70
2018-02-01T07:41:32.169Z,82.50
2018-02-01T07:43:59.700Z,83.00
2018-02-01T07:46:29.505Z,82.90
2018-02-01T07:48:57.036Z,82.90
2018-02-01T07:51:24.540Z,82.50
2018-02-01T07:53:52.052Z,83.00
2018-02-01T07:56:19.566Z,83.50
2018-02-01T07:58:47.076Z,82.80
2018-02-01T08:01:14.619Z,82.20
2018-02-01T08:03:42.120Z,81.90
2018-02-01T08:06:09.630Z,81.10
2018-02-01T08:08:37.201Z,81.00
2018-02-01T08:11:05.480Z,81.50
2018-02-01T08:13:32.991Z,81.50
2018-02-01T08:16:00.492Z,80.70
2018-02-01T08:18:28.002Z,81.80
2018-02-01T08:20:55.524Z,82.30
2018-02-01T08:23:23.072Z,80.90
2018-02-01T08:25:50.580Z,80.20
2018-02-01T08:28:18.087Z,80.20
2018-02-01T08:30:45.623Z,78.70
2018-02-01T08:33:13.129Z,79.60
2018-02-01T08:35:40.657Z,79.90
2018-02-01T08:38:08.154Z,80.50
2018-02-01T08:40:35.669Z,80.40
2018-02-01T08:43:03.160Z,79.20
2018-02-01T08:45:31.444Z,79.60
2018-02-01T08:47:58.936Z,79.60
2018-02-01T08:50:26.441Z,79.40
2018-02-01T08:52:54.712Z,78.30
2018-02-01T08:55:23.001Z,78.20
2018-02-01T08:57:50.500Z,78.60
2018-02-01T09:00:17.991Z,78.10
2018-02-01T09:02:45.502Z,77.60
2018-02-01T09:05:13.023Z,77.20
2018-02-01T09:07:41.317Z,76.50
2018-02-01T09:10:08.825Z,76.50
2018-02-01T09:12:36.375Z,76.90
2018-02-01T09:15:03.899Z,76.40
2018-02-01T09:17:31.403Z,75.70
2018-02-01T09:19:58.926Z,75.70
2018-02-01T09:22:26.421Z,75.00
2018-02-01T09:24:53.947Z,75.80
2018-02-01T09:27:21.431Z,75.70
2018-02-01T09:29:48.986Z,75.00
2018-02-01T09:32:16.495Z,75.00
2018-02-01T09:34:43.991Z,75.00
2018-02-01T09:37:11.507Z,75.30
2018-02-01T09:39:39.012Z,75.50
2018-02-01T09:42:06.540Z,76.00
2018-02-01T09:44:34.024Z,75.90
2018-02-01T09:47:01.541Z,75.90
2018-02-01T09:49:29.041Z,76.10
2018-02-01T09:51:56.594Z,76.50
2018-02-01T09:54:24.077Z,77.10
2018-02-01T09:56:52.346Z,77.30
2018-02-01T09:59:19.860Z,77.20
2018-02-01T10:01:47.372Z,77.40
2018-02-01T10:04:15.686Z,77.50
2018-02-01T10:06:43.195Z,78.30
2018-02-01T10:09:10.751Z,77.50
2018-02-01T10:11:38.256Z,77.50
2018-02-01T10:14:05.759Z,77.10
2018-02-01T10:16:33.272Z,77.40
2018-02-01T10:19:00.892Z,77.30
2018-02-01T10:21:29.177Z,78.10
2018-02-01T10:23:57.431Z,77.00
2018-02-01T10:26:24.960Z,76.90
2018-02-01T10:28:52.471Z,77.20
2018-02-01T10:31:20.760Z,77.00
2018-02-01T10:33:48.277Z,77.00
2018-02-01T10:36:15.771Z,76.30
2018-02-01T10:38:43.371Z,75.80
2018-02-01T10:41:10.875Z,75.30
2018-02-01T10:43:39.886Z,74.70
2018-02-01T10:46:07.368Z,74.70
2018-02-01T10:48:34.882Z,74.90
2018-02-01T10:51:03.143Z,69.70
2018-02-01T10:53:31.439Z,67.30
2018-02-01T10:55:58.942Z,67.30
2018-02-01T10:58:26.456Z,64.80
2018-02-01T11:00:53.993Z,63.70
2018-02-01T11:03:22.261Z,62.70
2018-02-01T11:05:49.776Z,61.80
2018-02-01T11:08:17.275Z,62.10
2018-02-01T11:10:46.295Z,60.80
2018-02-01T11:13:13.792Z,60.80
2018-02-01T11:15:41.296Z,61.50
2018-02-01T11:18:09.616Z,61.40
2018-02-01T11:20:37.151Z,61.40
2018-02-01T11:23:04.671Z,61.10
2018-02-01T11:25:32.201Z,61.10
2018-02-01T11:27:59.729Z,61.10
2018-02-01T11:30:27.264Z,60.80
2018-02-01T11:32:55.519Z,60.40
2018-02-01T11:35:23.033Z,60.30
2018-02-01T11:37:50.542Z,61.60
2018-02-01T11:40:18.091Z,61.50
2018-02-01T11:42:45.585Z,60.10
2018-02-01T11:45:13.107Z,59.90
2018-02-01T11:47:40.623Z,59.10
2018-02-01T11:50:08.160Z,58.10
2018-02-01T11:52:35.651Z,58.50
2018-02-01T11:55:03.180Z,59.10
2018-02-01T11:57:30.686Z,59.40
2018-02-01T11:59:58.200Z,59.50
2018-02-01T12:02:25.725Z,59.20
2018-02-01T12:04:54.006Z,59.50
2018-02-01T12:07:22.295Z,58.90
2018-02-01T12:09:49.793Z,58.80
2018-02-01T12:12:17.328Z,58.80
2018-02-01T12:14:44.841Z,59.00
2018-02-01T12:17:13.154Z,59.00
2018-02-01T12:19:40.659Z,59.00
2018-02-01T12:22:08.159Z,57.60
2018-02-01T12:24:35.679Z,58.30
2018-02-01T12:27:03.176Z,58.80
2018-02-01T12:29:30.697Z,57.80
2018-02-01T12:31:58.233Z,57.30
2018-02-01T12:34:25.763Z,57.60
2018-02-01T12:36:53.301Z,58.90
2018-02-01T12:39:21.575Z,58.80
2018-02-01T12:41:49.874Z,59.00
2018-02-01T12:44:17.375Z,58.90
2018-02-01T12:46:44.895Z,59.20
2018-02-01T12:49:12.403Z,59.20
2018-02-01T12:51:39.920Z,58.50
2018-02-01T12:54:07.434Z,58.20
2018-02-01T12:56:34.964Z,58.00
2018-02-01T12:59:02.499Z,57.90
2018-02-01T13:01:30.019Z,58.50
2018-02-01T13:03:57.575Z,58.00
2018-02-01T13:06:25.074Z,57.60
2018-02-01T13:08:52.612Z,57.40
2018-02-01T13:11:20.108Z,57.00
2018-02-01T13:13:47.608Z,56.10
2018-02-01T13:16:15.136Z,56.30
2018-02-01T13:18:42.684Z,57.50
2018-02-01T13:21:10.184Z,58.10
2018-02-01T13:23:37.688Z,56.80
2018-02-01T13:26:05.215Z,57.70
2018-02-01T13:28:32.716Z,57.20
2018-02-01T13:31:00.246Z,56.10
2018-02-01T13:33:27.740Z,56.10
2018-02-01T13:35:55.238Z,56.50
2018-02-01T13:38:22.756Z,56.90
2018-02-01T13:40:51.022Z,56.80
2018-02-01T13:43:18.552Z,56.20
2018-02-01T13:45:46.055Z,56.50
2018-02-01T13:48:14.361Z,55.70
2018-02-01T13:50:41.882Z,55.70
2018-02-01T13:53:10.183Z,56.20
2018-02-01T13:55:37.688Z,56.10
2018-02-01T13:58:05.181Z,56.10
2018-02-01T14:00:33.474Z,55.80
2018-02-01T14:03:01.167Z,55.80
2018-02-01T14:05:28.691Z,55.80
2018-02-01T14:07:56.183Z,55.80
2018-02-01T14:10:23.749Z,55.80
2018-02-01T14:12:51.243Z,55.50
2018-02-01T14:15:19.613Z,55.50
2018-02-01T14:17:47.141Z,56.20
2018-02-01T14:20:14.635Z,56.00
2018-02-01T14:22:42.918Z,56.60
2018-02-01T14:25:11.203Z,55.70
2018-02-01T14:27:38.732Z,55.70
2018-02-01T14:30:06.282Z,56.00
2018-02-01T14:32:33.786Z,56.70
2018-02-01T14:35:01.353Z,55.30
2018-02-01T14:37:28.840Z,55.40
2018-02-01T14:39:56.356Z,54.40
2018-02-01T14:42:23.881Z,55.20
2018-02-01T14:44:51.408Z,55.50
2018-02-01T14:47:18.925Z,55.70
2018-02-01T14:49:46.447Z,55.60
2018-02-01T14:52:13.963Z,54.80
2018-02-01T14:54:41.515Z,55.90
2018-02-01T14:57:09.050Z,56.30
2018-02-01T14:59:37.330Z,56.30
2018-02-01T15:02:04.884Z,56.30
2018-02-01T15:04:32.433Z,56.00
2018-02-01T15:07:00.723Z,55.10
2018-02-01T15:09:28.223Z,55.10
2018-02-01T15:11:55.730Z,54.80
2018-02-01T15:14:24.029Z,55.20
2018-02-01T15:16:51.539Z,55.20
2018-02-01T15:19:19.072Z,54.80
2018-02-01T15:21:46.576Z,55.20
2018-02-01T15:24:14.880Z,54.60
2018-02-01T15:26:42.419Z,54.50
2018-02-01T15:29:09.935Z,55.20
2018-02-01T15:31:37.478Z,55.10
2018-02-01T15:34:04.976Z,55.30
2018-02-01T15:36:33.284Z,56.40
2018-02-01T15:39:00.793Z,56.30
2018-02-01T15:41:28.329Z,56.30
2018-02-01T15:43:55.896Z,57.60
2018-02-01T15:46:23.436Z,56.90
2018-02-01T15:48:50.944Z,56.80
2018-02-01T15:51:19.217Z,57.30
2018-02-01T15:53:47.492Z,57.50
2018-02-01T15:56:15.757Z,57.80
2018-02-01T15:58:43.278Z,57.70
2018-02-01T16:01:10.788Z,58.40
2018-02-01T16:03:39.089Z,59.10
2018-02-01T16:06:06.593Z,59.10
2018-02-01T16:08:34.122Z,59.50
2018-02-01T16:11:01.652Z,59.70
2018-02-01T16:13:29.178Z,59.30
2018-02-01T16:15:57.477Z,60.10
2018-02-01T16:18:24.979Z,60.00
2018-02-01T16:20:52.526Z,60.30
2018-02-01T16:23:20.047Z,60.40
2018-02-01T16:25:47.575Z,60.90
2018-02-01T16:28:15.089Z,60.40
2018-02-01T16:30:42.608Z,59.80
2018-02-01T16:33:10.934Z,60.40
2018-02-01T16:35:38.432Z,60.40
2018-02-01T16:38:05.966Z,60.40
2018-02-01T16:40:33.481Z,60.50
2018-02-01T16:43:01.005Z,60.50
2018-02-01T16:45:28.526Z,60.60
2018-02-01T16:47:56.202Z,61.00
2018-02-01T16:50:23.716Z,61.00
2018-02-01T16:52:51.240Z,60.90
2018-02-01T16:55:18.768Z,61.60
2018-02-01T16:57:46.288Z,61.80
2018-02-01T17:00:13.789Z,61.80
2018-02-01T17:02:41.318Z,61.70
2018-02-01T17:05:08.876Z,62.00
2018-02-01T17:07:36.410Z,62.70
2018-02-01T17:10:03.912Z,62.40
2018-02-01T17:12:31.419Z,61.90
2018-02-01T17:14:59.724Z,62.00
2018-02-01T17:17:27.232Z,62.00
2018-02-01T17:19:54.760Z,61.90
2018-02-01T17:22:22.315Z,62.90
2018-02-01T17:24:49.880Z,61.60
2018-02-01T17:27:17.407Z,62.20
2018-02-01T17:29:44.920Z,63.10
2018-02-01T17:32:12.467Z,62.40
2018-02-01T17:34:39.970Z,61.90
2018-02-01T17:37:07.531Z,61.70
2018-02-01T17:39:35.078Z,61.80
2018-02-01T17:42:02.604Z,61.60
2018-02-01T17:44:30.135Z,61.80
2018-02-01T17:46:57.729Z,62.00
2018-02-01T17:49:25.285Z,61.80
2018-02-01T17:51:52.794Z,61.90
2018-02-01T17:54:20.312Z,62.10
2018-02-01T17:56:47.902Z,61.70
2018-02-01T17:59:15.453Z,62.20
2018-02-01T18:01:42.981Z,62.30
2018-02-01T18:04:10.478Z,62.30
2018-02-01T18:06:37.996Z,62.70
2018-02-01T18:09:06.284Z,62.90
2018-02-01T18:11:34.572Z,62.40
2018-02-01T18:14:02.101Z,62.30
2018-02-01T18:16:30.447Z,62.80
2018-02-01T18:18:57.947Z,62.80
2018-02-01T18:21:25.513Z,62.40
2018-02-01T18:23:53.789Z,62.50
2018-02-01T18:26:22.072Z,62.60
2018-02-01T18:28:49.614Z,62.60
2018-02-01T18:31:17.901Z,62.90
2018-02-01T18:33:45.420Z,63.00
2018-02-01T18:36:12.930Z,62.60
2018-02-01T18:38:40.504Z,62.50
2018-02-01T18:41:08.008Z,62.60
2018-02-01T18:43:35.579Z,62.60
2018-02-01T18:46:03.885Z,63.40
2018-02-01T18:48:31.391Z,63.40
2018-02-01T18:50:59.793Z,63.40
2018-02-01T18:53:28.060Z,63.50
2018-02-01T18:55:56.328Z,64.30
2018-02-01T18:58:23.860Z,63.50
2018-02-01T19:00:51.385Z,63.40
2018-02-01T19:03:18.916Z,63.60
2018-02-01T19:05:47.219Z,62.70
2018-02-01T19:08:14.745Z,62.70
2018-02-01T19:10:43.062Z,63.30
2018-02-01T19:13:10.572Z,63.30
2018-02-01T19:15:38.883Z,62.80
2018-02-01T19:18:06.495Z,62.80
2018-02-01T19:20:34.028Z,62.70
2018-02-01T19:23:01.575Z,62.40
2018-02-01T19:25:29.117Z,62.80
2018-02-01T19:27:56.612Z,62.40
2018-02-01T19:30:24.162Z,62.40
2018-02-01T19:32:51.708Z,62.10
2018-02-01T19:35:19.216Z,62.10
2018-02-01T19:37:47.473Z,62.70
2018-02-01T19:40:14.995Z,62.00
2018-02-01T19:42:42.528Z,62.10
2018-02-01T19:45:10.864Z,61.30
2018-02-01T19:47:38.379Z,61.20
2018-02-01T19:50:05.921Z,61.40
2018-02-01T19:52:34.270Z,61.60
2018-02-01T19:55:01.828Z,61.60
2018-02-01T19:57:29.355Z,61.60
2018-02-01T19:59:56.949Z,61.80
2018-02-01T20:02:24.474Z,61.40
2018-02-01T20:04:51.979Z,61.10
2018-02-01T20:07:20.310Z,61.00
2018-02-01T20:09:47.845Z,61.00
2018-02-01T20:12:15.375Z,61.50
2018-02-01T20:14:43.811Z,62.40
2018-02-01T20:17:11.345Z,62.40
2018-02-01T20:19:38.854Z,62.60
2018-02-01T20:22:07.167Z,81.80
2018-02-01T20:24:34.843Z,81.70
2018-02-01T20:27:02.396Z,80.50
2018-02-01T20:29:29.927Z,81.40
2018-02-01T20:31:58.241Z,73.80
2018-02-01T20:34:25.812Z,73.50
2018-02-01T20:36:53.317Z,65.70
2018-02-01T20:39:21.653Z,71.00
2018-02-01T20:41:49.217Z,71.00
2018-02-01T20:44:16.770Z,71.70
2018-02-01T20:46:44.304Z,69.90
2018-02-01T20:49:11.873Z,69.50
2018-02-01T20:51:39.405Z,64.60
2018-02-01T20:54:07.039Z,63.20
2018-02-01T20:56:35.353Z,66.90
2018-02-01T20:59:02.873Z,66.70
2018-02-01T21:01:31.174Z,63.70
2018-02-01T21:03:58.693Z,63.70
2018-02-01T21:06:26.226Z,68.10
2018-02-01T21:08:53.752Z,66.60
2018-02-01T21:11:21.339Z,66.40
2018-02-01T21:13:48.860Z,66.40
2018-02-01T21:16:16.510Z,64.80
2018-02-01T21:18:44.035Z,65.80
2018-02-01T21:21:11.615Z,62.60
2018-02-01T21:23:39.944Z,63.50
2018-02-01T21:26:07.480Z,63.50
2018-02-01T21:28:35.057Z,63.10
2018-02-01T21:31:02.576Z,60.80
2018-02-01T21:33:30.132Z,61.70
2018-02-01T21:35:57.727Z,62.00
2018-02-01T21:38:25.263Z,62.20
2018-02-01T21:40:52.806Z,62.30
2018-02-01T21:43:21.215Z,59.30
2018-02-01T21:45:48.773Z,59.80
2018-02-01T21:48:16.400Z,56.00
2018-02-01T21:50:43.977Z,56.90
2018-02-01T21:53:11.524Z,57.80
2018-02-01T21:55:39.045Z,58.40
2018-02-01T21:58:06.584Z,59.20
2018-02-01T22:00:34.106Z,59.80
2018-02-01T22:03:01.650Z,61.10
2018-02-01T22:05:29.173Z,61.50
2018-02-01T22:07:56.696Z,62.50
2018-02-01T22:10:24.267Z,63.20
2018-02-01T22:12:51.787Z,63.50
2018-02-01T22:15:19.346Z,63.70
2018-02-01T22:17:46.849Z,64.10
2018-02-01T22:20:14.367Z,64.30
2018-02-01T22:22:41.887Z,64.90
2018-02-01T22:25:09.407Z,65.20
2018-02-01T22:27:36.949Z,65.50
2018-02-01T22:30:04.459Z,66.20
2018-02-01T22:32:31.980Z,66.40
2018-02-01T22:34:59.501Z,66.30
2018-02-01T22:37:27.072Z,66.80
2018-02-01T22:39:54.576Z,67.30
2018-02-01T22:42:22.096Z,67.40
2018-02-01T22:44:49.614Z,67.20
2018-02-01T22:47:17.931Z,67.40
2018-02-01T22:49:45.424Z,67.40
2018-02-01T22:52:12.918Z,67.50
2018-02-01T22:54:41.238Z,67.60
2018-02-01T22:57:08.737Z,67.60
2018-02-01T22:59:37.049Z,67.30
2018-02-01T23:02:04.558Z,67.20
2018-02-01T23:04:32.067Z,66.90
2018-02-01T23:06:59.614Z,66.80
2018-02-01T23:09:27.135Z,66.30
2018-02-01T23:11:56.184Z,66.00
2018-02-01T23:14:23.705Z,65.90
2018-02-01T23:16:52.027Z,65.60
2018-02-01T23:19:19.542Z,65.60
2018-02-01T23:21:47.867Z,65.20
2018-02-01T23:24:15.392Z,65.20
2018-02-01T23:26:42.969Z,65.50
2018-02-01T23:29:10.476Z,65.50
2018-02-01T23:31:37.998Z,65.10
2018-02-01T23:34:05.570Z,65.30
2018-02-01T23:36:33.103Z,65.30
2018-02-01T23:39:00.777Z,65.50
2018-02-01T23:41:28.311Z,65.40
2018-02-01T23:43:55.828Z,65.50
2018-02-01T23:46:24.240Z,65.10
2018-02-01T23:48:52.122Z,65.10
2018-02-01T23:51:19.867Z,64.70
2018-02-01T23:53:47.574Z,64.90
2018-02-01T23:56:15.100Z,64.90
2018-02-01T23:58:42.654Z,64.90
